Time;durP1;ratioP1;P1;durP2;ratioP2;P2;SDS_P1;SDS_P2;PMS_P1;PMS_P2;Temp;Humidity;BMP_temperature;BMP_pressure;BME280_temperature;BME280_humidity;BME280_pressure;Samples;Min_cycle;Max_cycle;Signal;HPM_P1;HPM_P2
2022/05/01 00:02:04;;;;;;;;;;;;;;;;;;5094717;28;19948;-77
2022/05/01 00:04:30;;;;;;;;;;;;;;;;;;5095666;28;20026;-77
2022/05/01 00:06:55;;;;;;;;;;;;;;;;;;5095314;28;20057;-77
2022/05/01 00:09:20;;;;;;;;;;;;;;;;;;5095512;28;19920;-77
2022/05/01 00:11:46;;;;;;;;;;;;;;;;;;5095549;28;19959;-77
2022/05/01 00:14:12;;;;;;;;;;;;;;;;;;5096103;28;19927;-77
2022/05/01 00:16:37;;;;;;;;;;;;;;;;;;5094437;28;19916;-77
2022/05/01 00:19:02;;;;;;;;;;;;;;;;;;5092660;28;19924;-77
2022/05/01 00:21:28;;;;;;;;;;;;;;;;;;5093498;28;19955;-78
2022/05/01 00:23:53;;;;;;;;;;;;;;;;;;5093489;28;19916;-77
2022/05/01 00:26:21;;;;;;;;;;;;;;;;;;5091268;28;19932;-77
2022/05/01 00:28:46;;;;;;;;;;;;;;;;;;5093306;28;19928;-78
2022/05/01 00:31:12;;;;;;;;;;;;;;;;;;5092184;28;19938;-77
2022/05/01 00:36:27;;;;;;;;;;;;;;;;;;5095838;28;19920;-77
2022/05/01 00:38:53;;;;;;;;;;;;;;;;;;5095632;28;19916;-77
2022/05/01 00:41:21;;;;;;;;;;;;;;;;;;5095585;28;19916;-77
2022/05/01 00:43:56;;;;;;;;;;;;;;;;;;5095464;28;20389;-77
2022/05/01 00:46:23;;;;;;;;;;;;;;;;;;5113848;28;19916;-77
2022/05/01 00:48:48;;;;;;;;;;;;;;;;;;5115288;28;19960;-77
2022/05/01 00:51:14;;;;;;;;;;;;;;;;;;5109999;28;20371;-77
2022/05/01 00:53:39;;;;;;;;;;;;;;;;;;5093984;28;19916;-77
2022/05/01 00:56:05;;;;;;;;;;;;;;;;;;5094916;28;19927;-77
2022/05/01 00:58:30;;;;;;;;;;;;;;;;;;5094436;28;19965;-78
2022/05/01 01:00:56;;;;;;;;;;;;;;;;;;5095083;28;19939;-77
2022/05/01 01:03:21;;;;;;;;;;;;;;;;;;5094400;28;20453;-77
2022/05/01 01:05:47;;;;;;;;;;;;;;;;;;5095188;28;19916;-77
2022/05/01 01:08:12;;;;;;;;;;;;;;;;;;5094640;28;20010;-78
2022/05/01 01:10:37;;;;;;;;;;;;;;;;;;5095112;28;19922;-79
2022/05/01 01:13:03;;;;;;;;;;;;;;;;;;5094296;28;19984;-78
2022/05/01 01:15:29;;;;;;;;;;;;;;;;;;5095013;28;19935;-78
2022/05/01 01:17:54;;;;;;;;;;;;;;;;;;5094972;28;19924;-78
2022/05/01 01:20:26;;;;;;;;;;;;;;;;;;5094943;28;19923;-78
2022/05/01 01:22:53;;;;;;;;;;;;;;;;;;5095002;28;19920;-78
2022/05/01 01:25:19;;;;;;;;;;;;;;;;;;5094578;28;19916;-78
2022/05/01 01:27:44;;;;;;;;;;;;;;;;;;5093689;28;20349;-78
2022/05/01 01:32:54;;;;;;;;;;;;;;;;;;5094521;28;19955;-77
2022/05/01 01:35:22;;;;;;;;;;;;;;;;;;5094120;28;20045;-77
2022/05/01 01:37:48;;;;;;;;;;;;;;;;;;5094567;28;19916;-77
2022/05/01 01:40:14;;;;;;;;;;;;;;;;;;5093883;28;20000;-78
2022/05/01 01:42:40;;;;;;;;;;;;;;;;;;5092905;28;19916;-77
2022/05/01 01:45:07;;;;;;;;;;;;;;;;;;5092076;28;19969;-78
2022/05/01 01:47:33;;;;;;;;;;;;;;;;;;5091222;28;19971;-78
2022/05/01 01:49:58;;;;;;;;;;;;;;;;;;5092075;28;19944;-78
2022/05/01 01:52:23;;;;;;;;;;;;;;;;;;5091952;28;20298;-77
2022/05/01 01:54:48;;;;;;;;;;;;;;;;;;5091931;28;19963;-78
2022/05/01 01:57:14;;;;;;;;;;;;;;;;;;5092269;28;19969;-77
2022/05/01 01:59:41;;;;;;;;;;;;;;;;;;5093428;28;21378;-77
2022/05/01 02:02:08;;;;;;;;;;;;;;;;;;5093139;28;19916;-77
2022/05/01 02:04:34;;;;;;;;;;;;;;;;;;5093666;28;19916;-78
2022/05/01 02:06:59;;;;;;;;;;;;;;;;;;5089555;28;19927;-77
2022/05/01 02:09:25;;;;;;;;;;;;;;;;;;5091794;28;19916;-78
2022/05/01 02:11:50;;;;;;;;;;;;;;;;;;5090699;28;19955;-78
2022/05/01 02:14:15;;;;;;;;;;;;;;;;;;5090427;28;20511;-78
2022/05/01 02:16:41;;;;;;;;;;;;;;;;;;5091594;28;19920;-77
2022/05/01 02:19:06;;;;;;;;;;;;;;;;;;5090290;28;20430;-77
2022/05/01 02:21:35;;;;;;;;;;;;;;;;;;5093282;28;20350;-78
2022/05/01 02:24:01;;;;;;;;;;;;;;;;;;5092778;28;19920;-78
2022/05/01 02:26:27;;;;;;;;;;;;;;;;;;5092063;28;20062;-78
2022/05/01 02:28:52;;;;;;;;;;;;;;;;;;5093910;28;20018;-78
2022/05/01 02:31:18;;;;;;;;;;;;;;;;;;5093878;28;19919;-78
2022/05/01 02:33:44;;;;;;;;;;;;;;;;;;5093918;28;19916;-77
2022/05/01 02:36:10;;;;;;;;;;;;;;;;;;5093561;28;19916;-77
2022/05/01 02:38:36;;;;;;;;;;;;;;;;;;5093462;28;19922;-77
2022/05/01 02:41:04;;;;;;;;;;;;;;;;;;5094209;28;19920;-78
2022/05/01 02:43:29;;;;;;;;;;;;;;;;;;5098199;28;20312;-77
2022/05/01 02:45:54;;;;;;;;;;;;;;;;;;5096977;28;19920;-76
2022/05/01 02:48:20;;;;;;;;;;;;;;;;;;5097754;28;19920;-77
2022/05/01 02:50:45;;;;;;;;;;;;;;;;;;5097171;28;19916;-77
2022/05/01 02:53:10;;;;;;;;;;;;;;;;;;5096696;28;19916;-77
2022/05/01 02:55:36;;;;;;;;;;;;;;;;;;5097512;28;19973;-77
2022/05/01 02:58:02;;;;;;;;;;;;;;;;;;5097423;28;19942;-78
2022/05/01 03:00:27;;;;;;;;;;;;;;;;;;5092156;28;19939;-77
2022/05/01 03:02:55;;;;;;;;;;;;;;;;;;5077200;28;19916;-77
2022/05/01 03:05:21;;;;;;;;;;;;;;;;;;5076717;28;19923;-77
2022/05/01 03:07:47;;;;;;;;;;;;;;;;;;5076637;28;19920;-77
2022/05/01 03:10:12;;;;;;;;;;;;;;;;;;5076967;28;19923;-77
2022/05/01 03:12:38;;;;;;;;;;;;;;;;;;5077164;28;20266;-77
2022/05/01 03:15:04;;;;;;;;;;;;;;;;;;5076820;28;19917;-77
2022/05/01 03:22:10;;;;;;;;;;;;;;;;;;5075582;28;19966;-77
2022/05/01 03:23:00;;;;;;;;;;;;;;;;;;5076784;28;19920;-78
2022/05/01 03:25:25;;;;;;;;;;;;;;;;;;5076174;28;20440;-77
2022/05/01 03:27:51;;;;;;;;;;;;;;;;;;5075130;28;20305;-77
2022/05/01 03:30:19;;;;;;;;;;;;;;;;;;5079794;28;19966;-77
2022/05/01 03:32:45;;;;;;;;;;;;;;;;;;5095835;28;19967;-77
2022/05/01 03:35:10;;;;;;;;;;;;;;;;;;5096772;28;19920;-77
2022/05/01 03:37:36;;;;;;;;;;;;;;;;;;5096647;28;20339;-77
2022/05/01 03:40:02;;;;;;;;;;;;;;;;;;5094762;28;19920;-77
2022/05/01 03:42:28;;;;;;;;;;;;;;;;;;5096748;28;20002;-77
2022/05/01 03:44:54;;;;;;;;;;;;;;;;;;5096815;28;20300;-78
2022/05/01 03:47:20;;;;;;;;;;;;;;;;;;5096358;28;20345;-77
2022/05/01 03:49:45;;;;;;;;;;;;;;;;;;5096712;28;19981;-77
2022/05/01 03:52:10;;;;;;;;;;;;;;;;;;5096125;28;20412;-77
2022/05/01 03:54:35;;;;;;;;;;;;;;;;;;5094977;28;19927;-77
2022/05/01 03:57:02;;;;;;;;;;;;;;;;;;5096432;28;19927;-77
2022/05/01 03:59:29;;;;;;;;;;;;;;;;;;5096241;28;20044;-78
2022/05/01 04:01:55;;;;;;;;;;;;;;;;;;5096347;28;20008;-77
2022/05/01 04:04:20;;;;;;;;;;;;;;;;;;5096384;28;19947;-76
2022/05/01 04:06:46;;;;;;;;;;;;;;;;;;5095342;28;20022;-77
2022/05/01 04:09:12;;;;;;;;;;;;;;;;;;5094985;28;19919;-77
2022/05/01 04:11:37;;;;;;;;;;;;;;;;;;5096209;28;19916;-77
2022/05/01 04:14:02;;;;;;;;;;;;;;;;;;5094688;28;19916;-78
2022/05/01 04:16:28;;;;;;;;;;;;;;;;;;5094594;28;19916;-77
2022/05/01 04:18:53;;;;;;;;;;;;;;;;;;5096147;28;19920;-77
2022/05/01 04:21:19;;;;;;;;;;;;;;;;;;5096071;28;19917;-77
2022/05/01 04:23:45;;;;;;;;;;;;;;;;;;5095836;28;19916;-77
2022/05/01 04:26:10;;;;;;;;;;;;;;;;;;5095912;28;20403;-77
2022/05/01 04:28:35;;;;;;;;;;;;;;;;;;5095817;28;19958;-78
2022/05/01 04:31:01;;;;;;;;;;;;;;;;;;5094625;28;19920;-78
2022/05/01 04:33:27;;;;;;;;;;;;;;;;;;5095879;28;19920;-77
2022/05/01 04:35:53;;;;;;;;;;;;;;;;;;5094245;28;19916;-77
2022/05/01 04:38:19;;;;;;;;;;;;;;;;;;5094401;28;20385;-77
2022/05/01 04:40:49;;;;;;;;;;;;;;;;;;5095680;28;19923;-77
2022/05/01 04:43:18;;;;;;;;;;;;;;;;;;5095509;28;20317;-77
2022/05/01 04:45:44;;;;;;;;;;;;;;;;;;5094038;28;19924;-77
2022/05/01 04:48:10;;;;;;;;;;;;;;;;;;5077139;28;19920;-77
2022/05/01 04:50:35;;;;;;;;;;;;;;;;;;5095364;28;20042;-77
2022/05/01 04:53:01;;;;;;;;;;;;;;;;;;5095222;28;19986;-78
2022/05/01 04:55:27;;;;;;;;;;;;;;;;;;5095146;28;19920;-77
2022/05/01 04:57:53;;;;;;;;;;;;;;;;;;5095195;28;19916;-77
2022/05/01 05:00:19;;;;;;;;;;;;;;;;;;5095018;28;20010;-77
2022/05/01 05:02:47;;;;;;;;;;;;;;;;;;5095254;28;19916;-77
2022/05/01 05:05:12;;;;;;;;;;;;;;;;;;5094715;28;20286;-77
2022/05/01 05:07:38;;;;;;;;;;;;;;;;;;5094071;28;19920;-77
2022/05/01 05:10:04;;;;;;;;;;;;;;;;;;5094522;28;19916;-77
2022/05/01 05:12:29;;;;;;;;;;;;;;;;;;5094951;28;19955;-77
2022/05/01 05:14:58;;;;;;;;;;;;;;;;;;5093556;28;19967;-77
2022/05/01 05:17:24;;;;;;;;;;;;;;;;;;5094918;28;20014;-77
2022/05/01 05:19:50;;;;;;;;;;;;;;;;;;5094973;28;19966;-77
2022/05/01 05:22:15;;;;;;;;;;;;;;;;;;5094854;28;19952;-77
2022/05/01 05:24:41;;;;;;;;;;;;;;;;;;5094815;28;19939;-77
2022/05/01 05:27:06;;;;;;;;;;;;;;;;;;5094486;28;20362;-77
2022/05/01 05:29:32;;;;;;;;;;;;;;;;;;5094593;28;19931;-77
2022/05/01 05:31:57;;;;;;;;;;;;;;;;;;5093608;28;19942;-78
2022/05/01 05:34:23;;;;;;;;;;;;;;;;;;5093756;28;19916;-77
2022/05/01 05:36:48;;;;;;;;;;;;;;;;;;5090957;28;19955;-78
2022/05/01 05:39:13;;;;;;;;;;;;;;;;;;5090977;28;19994;-77
2022/05/01 05:41:39;;;;;;;;;;;;;;;;;;5093243;28;19921;-77
2022/05/01 05:44:04;;;;;;;;;;;;;;;;;;5092958;28;19927;-77
2022/05/01 05:46:30;;;;;;;;;;;;;;;;;;5094029;28;20014;-77
2022/05/01 05:48:55;;;;;;;;;;;;;;;;;;5094073;28;19924;-77
2022/05/01 05:51:20;;;;;;;;;;;;;;;;;;5092699;28;19920;-77
2022/05/01 05:53:46;;;;;;;;;;;;;;;;;;5094174;28;19959;-77
2022/05/01 05:56:11;;;;;;;;;;;;;;;;;;5093879;28;20333;-77
2022/05/01 05:58:37;;;;;;;;;;;;;;;;;;5093967;28;19943;-77
2022/05/01 06:01:02;;;;;;;;;;;;;;;;;;5091794;28;19944;-77
2022/05/01 06:03:28;;;;;;;;;;;;;;;;;;5094069;28;19916;-77
2022/05/01 06:05:53;;;;;;;;;;;;;;;;;;5093961;28;19977;-77
2022/05/01 06:08:18;;;;;;;;;;;;;;;;;;5093706;28;20006;-77
2022/05/01 06:10:44;;;;;;;;;;;;;;;;;;5093956;28;20365;-78
2022/05/01 06:13:09;;;;;;;;;;;;;;;;;;5092817;28;19947;-78
2022/05/01 06:15:36;;;;;;;;;;;;;;;;;;5093138;28;19916;-78
2022/05/01 06:18:02;;;;;;;;;;;;;;;;;;5092692;28;20404;-78
2022/05/01 06:20:27;;;;;;;;;;;;;;;;;;5093941;28;19947;-77
2022/05/01 06:22:52;;;;;;;;;;;;;;;;;;5094012;28;19912;-78
2022/05/01 06:25:18;;;;;;;;;;;;;;;;;;5075595;28;19915;-77
2022/05/01 06:27:44;;;;;;;;;;;;;;;;;;5093395;28;20006;-77
2022/05/01 06:30:12;;;;;;;;;;;;;;;;;;5092257;28;20314;-78
2022/05/01 06:32:42;;;;;;;;;;;;;;;;;;5092567;28;19916;-77
2022/05/01 06:35:07;;;;;;;;;;;;;;;;;;5094312;28;19956;-77
2022/05/01 06:37:37;;;;;;;;;;;;;;;;;;5094398;28;20313;-77
2022/05/01 06:40:04;;;;;;;;;;;;;;;;;;5092534;28;19919;-77
2022/05/01 06:42:30;;;;;;;;;;;;;;;;;;5093628;28;19927;-77
2022/05/01 06:44:55;;;;;;;;;;;;;;;;;;5092454;28;19962;-76
2022/05/01 06:47:20;;;;;;;;;;;;;;;;;;5093420;28;19920;-76
2022/05/01 06:49:46;;;;;;;;;;;;;;;;;;5075524;28;19920;-77
2022/05/01 06:52:11;;;;;;;;;;;;;;;;;;5093678;28;19966;-76
2022/05/01 06:54:36;;;;;;;;;;;;;;;;;;5093316;28;20315;-77
2022/05/01 06:57:02;;;;;;;;;;;;;;;;;;5093413;28;19920;-77
2022/05/01 06:59:27;;;;;;;;;;;;;;;;;;5092372;28;19914;-76
2022/05/01 07:01:53;;;;;;;;;;;;;;;;;;5092719;28;19939;-78
2022/05/01 07:04:18;;;;;;;;;;;;;;;;;;5093595;28;19916;-76
2022/05/01 07:06:45;;;;;;;;;;;;;;;;;;5092227;28;19916;-78
2022/05/01 07:09:10;;;;;;;;;;;;;;;;;;5092068;28;19959;-77
2022/05/01 07:11:35;;;;;;;;;;;;;;;;;;5093250;28;20393;-78
2022/05/01 07:14:01;;;;;;;;;;;;;;;;;;5093207;28;19920;-77
2022/05/01 07:16:26;;;;;;;;;;;;;;;;;;5093348;28;19915;-77
2022/05/01 07:18:52;;;;;;;;;;;;;;;;;;5094677;28;19920;-77
2022/05/01 07:21:18;;;;;;;;;;;;;;;;;;5094112;28;19916;-78
2022/05/01 07:23:44;;;;;;;;;;;;;;;;;;5092107;28;19916;-77
2022/05/01 07:26:09;;;;;;;;;;;;;;;;;;5093166;28;19939;-77
2022/05/01 07:28:35;;;;;;;;;;;;;;;;;;5095972;28;20061;-77
2022/05/01 07:31:02;;;;;;;;;;;;;;;;;;5097003;28;20420;-77
2022/05/01 07:33:27;;;;;;;;;;;;;;;;;;5096212;28;19923;-77
2022/05/01 07:35:53;;;;;;;;;;;;;;;;;;5096789;28;19916;-77
2022/05/01 07:38:18;;;;;;;;;;;;;;;;;;5096711;28;19923;-77
2022/05/01 07:40:43;;;;;;;;;;;;;;;;;;5096652;28;19916;-77
2022/05/01 07:43:12;;;;;;;;;;;;;;;;;;5098070;28;19977;-76
2022/05/01 07:45:37;;;;;;;;;;;;;;;;;;5097552;28;19916;-78
2022/05/01 07:48:02;;;;;;;;;;;;;;;;;;5098419;28;19942;-76
2022/05/01 07:50:28;;;;;;;;;;;;;;;;;;5097736;28;20392;-78
2022/05/01 07:52:54;;;;;;;;;;;;;;;;;;5097790;28;19920;-78
2022/05/01 07:55:19;;;;;;;;;;;;;;;;;;5097616;28;19921;-78
2022/05/01 07:57:45;;;;;;;;;;;;;;;;;;5095182;28;19916;-78
2022/05/01 08:00:13;;;;;;;;;;;;;;;;;;5096053;28;19924;-76
2022/05/01 08:05:33;;;;;;;;;;;;;;;;;;5057085;28;19963;-77
2022/05/01 08:07:58;;;;;;;;;;;;;;;;;;5097062;28;20339;-77
2022/05/01 08:10:23;;;;;;;;;;;;;;;;;;5097165;28;19916;-78
2022/05/01 08:12:49;;;;;;;;;;;;;;;;;;5095722;28;19916;-78
2022/05/01 08:15:17;;;;;;;;;;;;;;;;;;5097019;28;19923;-79
2022/05/01 08:17:42;;;;;;;;;;;;;;;;;;5094086;28;19989;-79
2022/05/01 08:23:13;;;;;;;;;;;;;;;;;;5053179;28;19920;-79
2022/05/01 08:25:38;;;;;;;;;;;;;;;;;;5052903;28;19923;-79
2022/05/01 08:28:06;;;;;;;;;;;;;;;;;;5071823;28;19928;-77
2022/05/01 08:30:31;;;;;;;;;;;;;;;;;;5076156;28;19923;-77
2022/05/01 08:32:57;;;;;;;;;;;;;;;;;;5094666;28;19916;-77
2022/05/01 08:35:22;;;;;;;;;;;;;;;;;;5094651;28;19946;-77
2022/05/01 08:37:47;;;;;;;;;;;;;;;;;;5095701;28;19916;-77
2022/05/01 08:40:14;;;;;;;;;;;;;;;;;;5095059;28;19916;-77
2022/05/01 08:42:39;;;;;;;;;;;;;;;;;;5095542;28;19923;-77
2022/05/01 08:45:08;;;;;;;;;;;;;;;;;;5095180;28;19920;-77
2022/05/01 08:47:35;;;;;;;;;;;;;;;;;;5095032;28;20332;-77
2022/05/01 08:50:01;;;;;;;;;;;;;;;;;;5094604;28;19919;-77
2022/05/01 08:52:29;;;;;;;;;;;;;;;;;;5095673;28;19913;-77
2022/05/01 08:54:56;;;;;;;;;;;;;;;;;;5094979;28;20510;-76
2022/05/01 08:57:21;;;;;;;;;;;;;;;;;;5094846;28;19947;-78
2022/05/01 08:59:50;;;;;;;;;;;;;;;;;;5096179;28;19962;-78
2022/05/01 09:02:15;;;;;;;;;;;;;;;;;;5095139;28;20247;-81
2022/05/01 09:04:41;;;;;;;;;;;;;;;;;;5099938;28;19923;-78
2022/05/01 09:07:06;;;;;;;;;;;;;;;;;;5095276;28;19916;-77
2022/05/01 09:09:32;;;;;;;;;;;;;;;;;;5095384;28;19920;-76
2022/05/01 09:14:41;;;;;;;;;;;;;;;;;;5095497;28;19952;-77
2022/05/01 09:17:10;;;;;;;;;;;;;;;;;;5095287;28;19942;-78
2022/05/01 09:19:36;;;;;;;;;;;;;;;;;;5095303;28;19923;-78
2022/05/01 09:22:02;;;;;;;;;;;;;;;;;;5096305;28;19920;-81
2022/05/01 09:24:28;;;;;;;;;;;;;;;;;;5093515;28;20003;-77
2022/05/01 09:26:54;;;;;;;;;;;;;;;;;;5093548;28;19962;-77
2022/05/01 09:29:20;;;;;;;;;;;;;;;;;;5093478;28;19969;-76
2022/05/01 09:31:46;;;;;;;;;;;;;;;;;;5094743;28;19916;-77
2022/05/01 09:34:24;;;;;;;;;;;;;;;;;;5094670;28;19920;-77
2022/05/01 09:36:52;;;;;;;;;;;;;;;;;;5093048;28;20331;-77
2022/05/01 09:39:18;;;;;;;;;;;;;;;;;;5094420;28;20309;-77
2022/05/01 09:41:44;;;;;;;;;;;;;;;;;;5093270;28;20394;-77
2022/05/01 09:44:13;;;;;;;;;;;;;;;;;;5094276;28;19995;-77
2022/05/01 09:46:39;;;;;;;;;;;;;;;;;;5095112;28;19916;-79
2022/05/01 09:49:09;;;;;;;;;;;;;;;;;;5095475;28;20274;-78
2022/05/01 09:51:38;;;;;;;;;;;;;;;;;;5093595;28;20366;-77
2022/05/01 09:54:04;;;;;;;;;;;;;;;;;;5094069;28;19916;-78
2022/05/01 09:56:46;;;;;;;;;;;;;;;;;;5093531;28;19920;-76
2022/05/01 09:59:12;;;;;;;;;;;;;;;;;;5093937;28;20358;-75
2022/05/01 10:01:37;;;;;;;;;;;;;;;;;;5093874;28;19922;-78
2022/05/01 10:04:03;;;;;;;;;;;;;;;;;;5096497;28;19923;-80
2022/05/01 10:06:29;;;;;;;;;;;;;;;;;;5098402;28;19923;-81
2022/05/01 10:08:55;;;;;;;;;;;;;;;;;;5095861;28;20384;-77
2022/05/01 10:11:23;;;;;;;;;;;;;;;;;;5093733;28;20015;-76
2022/05/01 10:13:48;;;;;;;;;;;;;;;;;;5094632;28;19916;-82
2022/05/01 10:16:15;;;;;;;;;;;;;;;;;;5094662;28;19938;-78
2022/05/01 10:18:42;;;;;;;;;;;;;;;;;;5092863;28;19981;-78
2022/05/01 10:21:07;;;;;;;;;;;;;;;;;;5075898;28;19916;-75
2022/05/01 10:23:34;;;;;;;;;;;;;;;;;;5094598;28;19962;-77
2022/05/01 10:26:06;;;;;;;;;;;;;;;;;;5093260;28;20403;-77
2022/05/01 10:28:50;;;;;;;;;;;;;;;;;;5094097;28;20409;-74
2022/05/01 10:34:13;;;;;;;;;;;;;;;;;;5074564;28;20015;-79
2022/05/01 10:36:45;;;;;;;;;;;;;;;;;;5075989;28;19917;-78
2022/05/01 10:39:13;;;;;;;;;;;;;;;;;;5075245;28;19916;-78
2022/05/01 10:41:40;;;;;;;;;;;;;;;;;;5073582;28;20371;-78
2022/05/01 10:44:05;;;;;;;;;;;;;;;;;;5077523;28;20492;-78
2022/05/01 10:46:31;;;;;;;;;;;;;;;;;;5076179;28;19928;-78
2022/05/01 10:49:00;;;;;;;;;;;;;;;;;;5075326;28;19981;-78
2022/05/01 10:51:36;;;;;;;;;;;;;;;;;;5073166;28;19978;-76
2022/05/01 10:54:10;;;;;;;;;;;;;;;;;;5073499;28;19986;-77
2022/05/01 10:56:39;;;;;;;;;;;;;;;;;;5075782;28;19927;-77
2022/05/01 10:59:23;;;;;;;;;;;;;;;;;;5073847;28;19927;-77
2022/05/01 11:01:52;;;;;;;;;;;;;;;;;;5077918;28;19922;-75
2022/05/01 11:04:19;;;;;;;;;;;;;;;;;;5096398;28;19916;-79
2022/05/01 11:06:45;;;;;;;;;;;;;;;;;;5102417;28;19918;-78
2022/05/01 11:09:13;;;;;;;;;;;;;;;;;;5103316;28;20318;-78
2022/05/01 11:11:39;;;;;;;;;;;;;;;;;;5110153;28;19916;-80
2022/05/01 11:14:04;;;;;;;;;;;;;;;;;;5111856;28;20023;-80
2022/05/01 11:16:48;;;;;;;;;;;;;;;;;;5106529;28;20012;-79
2022/05/01 11:19:13;;;;;;;;;;;;;;;;;;5100335;28;19916;-78
2022/05/01 11:21:39;;;;;;;;;;;;;;;;;;5103434;28;20500;-77
2022/05/01 11:24:05;;;;;;;;;;;;;;;;;;5100083;28;19967;-81
2022/05/01 11:26:30;;;;;;;;;;;;;;;;;;5101986;28;19916;-80
2022/05/01 11:29:08;;;;;;;;;;;;;;;;;;5101786;28;19920;-81
2022/05/01 11:31:36;;;;;;;;;;;;;;;;;;5102037;28;19922;-81
2022/05/01 11:34:21;;;;;;;;;;;;;;;;;;5102889;28;19920;-79
2022/05/01 11:36:50;;;;;;;;;;;;;;;;;;5085305;28;20019;-79
2022/05/01 11:39:15;;;;;;;;;;;;;;;;;;5098177;28;19938;-79
2022/05/01 11:41:45;;;;;;;;;;;;;;;;;;5100055;28;20303;-81
2022/05/01 11:44:24;;;;;;;;;;;;;;;;;;5103069;28;19916;-79
2022/05/01 11:46:49;;;;;;;;;;;;;;;;;;5102896;28;19916;-77
2022/05/01 11:49:14;;;;;;;;;;;;;;;;;;5098821;28;19945;-77
2022/05/01 11:51:40;;;;;;;;;;;;;;;;;;5100934;28;19916;-79
2022/05/01 11:54:07;;;;;;;;;;;;;;;;;;5098183;28;19938;-79
2022/05/01 12:04:46;;;;;;;;;;;;;;;;;;5077462;28;19917;-79
2022/05/01 12:07:15;;;;;;;;;;;;;;;;;;5077266;28;19928;-79
2022/05/01 12:09:41;;;;;;;;;;;;;;;;;;5077643;28;19920;-80
2022/05/01 12:12:11;;;;;;;;;;;;;;;;;;5077522;28;19916;-79
2022/05/01 12:14:41;;;;;;;;;;;;;;;;;;5077030;28;19944;-79
2022/05/01 12:17:07;;;;;;;;;;;;;;;;;;5077878;28;19971;-80
2022/05/01 12:19:33;;;;;;;;;;;;;;;;;;5079276;28;19920;-79
2022/05/01 12:22:00;;;;;;;;;;;;;;;;;;5078316;28;19939;-79
2022/05/01 12:24:26;;;;;;;;;;;;;;;;;;5079063;28;20007;-79
2022/05/01 12:26:55;;;;;;;;;;;;;;;;;;5079023;28;20405;-79
2022/05/01 12:29:21;;;;;;;;;;;;;;;;;;5078584;28;19921;-79
2022/05/01 12:32:06;;;;;;;;;;;;;;;;;;5108655;28;20297;-80
2022/05/01 12:34:52;;;;;;;;;;;;;;;;;;5097868;28;20389;-79
2022/05/01 12:37:18;;;;;;;;;;;;;;;;;;5098427;28;19916;-80
2022/05/01 12:39:54;;;;;;;;;;;;;;;;;;5099320;28;20251;-79
2022/05/01 12:45:09;;;;;;;;;;;;;;;;;;5098920;28;19923;-81
2022/05/01 12:47:37;;;;;;;;;;;;;;;;;;5096666;28;20339;-79
2022/05/01 12:50:22;;;;;;;;;;;;;;;;;;5098404;28;20313;-79
2022/05/01 12:52:49;;;;;;;;;;;;;;;;;;5098879;28;20293;-80
2022/05/01 12:55:20;;;;;;;;;;;;;;;;;;5098178;28;20011;-79
2022/05/01 12:57:48;;;;;;;;;;;;;;;;;;5096515;28;19963;-79
2022/05/01 13:00:32;;;;;;;;;;;;;;;;;;5098531;28;20006;-79
2022/05/01 13:03:16;;;;;;;;;;;;;;;;;;5091351;28;19916;-79
2022/05/01 13:05:43;;;;;;;;;;;;;;;;;;5077155;28;19921;-80
2022/05/01 13:08:15;;;;;;;;;;;;;;;;;;5096682;28;19916;-80
2022/05/01 13:10:41;;;;;;;;;;;;;;;;;;5100728;28;19923;-80
2022/05/01 13:13:06;;;;;;;;;;;;;;;;;;5098940;28;19916;-80
2022/05/01 13:15:38;;;;;;;;;;;;;;;;;;5099783;28;19924;-81
2022/05/01 13:18:03;;;;;;;;;;;;;;;;;;5098200;28;19916;-80
2022/05/01 13:20:29;;;;;;;;;;;;;;;;;;5098231;28;19916;-79
2022/05/01 13:22:54;;;;;;;;;;;;;;;;;;5098571;28;19916;-80
2022/05/01 13:25:19;;;;;;;;;;;;;;;;;;5098224;28;19919;-80
2022/05/01 13:27:45;;;;;;;;;;;;;;;;;;5098387;28;19920;-80
2022/05/01 13:30:14;;;;;;;;;;;;;;;;;;5100048;28;19916;-80
2022/05/01 13:32:39;;;;;;;;;;;;;;;;;;5101033;28;19916;-81
2022/05/01 13:35:04;;;;;;;;;;;;;;;;;;5101237;28;19945;-82
2022/05/01 13:37:30;;;;;;;;;;;;;;;;;;5098617;28;19920;-80
2022/05/01 13:45:23;;;;;;;;;;;;;;;;;;5096837;28;19916;-80
2022/05/01 13:47:49;;;;;;;;;;;;;;;;;;5096980;28;19927;-80
2022/05/01 13:50:14;;;;;;;;;;;;;;;;;;5096942;28;19923;-80
2022/05/01 13:52:40;;;;;;;;;;;;;;;;;;5099140;28;19990;-80
2022/05/01 13:55:05;;;;;;;;;;;;;;;;;;5099493;28;19920;-82
2022/05/01 13:57:31;;;;;;;;;;;;;;;;;;5105809;28;19971;-80
2022/05/01 13:59:57;;;;;;;;;;;;;;;;;;5119658;28;19920;-80
2022/05/01 14:02:22;;;;;;;;;;;;;;;;;;5118564;28;19926;-80
2022/05/01 14:04:47;;;;;;;;;;;;;;;;;;5118884;28;19916;-80
2022/05/01 14:07:13;;;;;;;;;;;;;;;;;;5117409;28;19915;-80
2022/05/01 14:09:39;;;;;;;;;;;;;;;;;;5116608;28;19919;-79
2022/05/01 14:12:06;;;;;;;;;;;;;;;;;;5116398;28;20369;-80
2022/05/01 14:14:31;;;;;;;;;;;;;;;;;;5115640;28;19916;-80
2022/05/01 14:16:57;;;;;;;;;;;;;;;;;;5116417;28;20392;-79
2022/05/01 14:19:26;;;;;;;;;;;;;;;;;;5116236;28;20369;-80
2022/05/01 14:21:52;;;;;;;;;;;;;;;;;;5116248;28;19915;-80
2022/05/01 14:24:17;;;;;;;;;;;;;;;;;;5117401;28;19923;-80
2022/05/01 14:26:43;;;;;;;;;;;;;;;;;;5116508;28;20014;-80
2022/05/01 14:29:09;;;;;;;;;;;;;;;;;;5116256;28;19926;-80
2022/05/01 14:31:46;;;;;;;;;;;;;;;;;;5116025;28;19968;-79
2022/05/01 14:34:23;;;;;;;;;;;;;;;;;;5115807;28;19915;-80
2022/05/01 14:36:50;;;;;;;;;;;;;;;;;;5115692;28;20373;-80
2022/05/01 14:39:16;;;;;;;;;;;;;;;;;;5122429;28;19941;-81
2022/05/01 14:41:44;;;;;;;;;;;;;;;;;;5122967;28;19950;-81
2022/05/01 14:44:10;;;;;;;;;;;;;;;;;;5116402;28;19917;-80
2022/05/01 14:46:58;;;;;;;;;;;;;;;;;;5082502;28;19920;-80
2022/05/01 14:49:38;;;;;;;;;;;;;;;;;;5082136;28;19921;-80
2022/05/01 14:52:04;;;;;;;;;;;;;;;;;;5081269;28;20290;-79
2022/05/01 14:54:32;;;;;;;;;;;;;;;;;;5099874;28;19916;-80
2022/05/01 14:57:00;;;;;;;;;;;;;;;;;;5101049;28;20374;-79
2022/05/01 15:07:45;;;;;;;;;;;;;;;;;;5100757;28;19920;-80
2022/05/01 15:10:11;;;;;;;;;;;;;;;;;;5099615;28;19916;-79
2022/05/01 15:12:37;;;;;;;;;;;;;;;;;;5100974;28;19922;-79
2022/05/01 15:15:03;;;;;;;;;;;;;;;;;;5100787;28;19920;-80
2022/05/01 15:17:32;;;;;;;;;;;;;;;;;;5101037;28;19916;-79
2022/05/01 15:20:24;;;;;;;;;;;;;;;;;;5100321;28;19956;-80
2022/05/01 15:23:10;;;;;;;;;;;;;;;;;;5089232;28;19923;-79
2022/05/01 15:25:57;;;;;;;;;;;;;;;;;;5078266;28;19923;-80
2022/05/01 15:28:22;;;;;;;;;;;;;;;;;;5097864;28;19971;-79
2022/05/01 15:30:50;;;;;;;;;;;;;;;;;;5097951;28;19923;-79
2022/05/01 15:36:15;;;;;;;;;;;;;;;;;;5083541;28;19916;-79
2022/05/01 15:38:47;;;;;;;;;;;;;;;;;;5086360;28;19923;-80
2022/05/01 15:41:13;;;;;;;;;;;;;;;;;;5088134;28;20450;-79
2022/05/01 15:43:39;;;;;;;;;;;;;;;;;;5085014;28;19920;-79
2022/05/01 15:46:21;;;;;;;;;;;;;;;;;;5090967;28;19927;-79
2022/05/01 15:54:18;;;;;;;;;;;;;;;;;;5083162;28;19916;-79
2022/05/01 15:56:44;;;;;;;;;;;;;;;;;;5096633;28;20412;-79
2022/05/01 15:59:10;;;;;;;;;;;;;;;;;;5090635;28;19916;-80
2022/05/01 16:01:36;;;;;;;;;;;;;;;;;;5090697;28;19916;-80
2022/05/01 16:04:02;;;;;;;;;;;;;;;;;;5083462;28;20021;-80
2022/05/01 16:06:33;;;;;;;;;;;;;;;;;;5087965;28;20504;-81
2022/05/01 16:08:59;;;;;;;;;;;;;;;;;;5099373;28;20288;-81
2022/05/01 16:11:31;;;;;;;;;;;;;;;;;;5097660;28;19947;-80
2022/05/01 16:14:13;;;;;;;;;;;;;;;;;;5081541;28;19965;-78
2022/05/01 16:16:38;;;;;;;;;;;;;;;;;;5081474;28;20019;-78
2022/05/01 16:19:07;;;;;;;;;;;;;;;;;;5099849;28;19951;-80
2022/05/01 16:21:52;;;;;;;;;;;;;;;;;;5092214;28;19928;-78
2022/05/01 16:24:19;;;;;;;;;;;;;;;;;;5060903;28;19939;-80
2022/05/01 16:26:45;;;;;;;;;;;;;;;;;;5087082;28;19916;-81
2022/05/01 16:29:25;;;;;;;;;;;;;;;;;;5085655;28;20061;-81
2022/05/01 16:32:03;;;;;;;;;;;;;;;;;;5096394;28;19916;-81
2022/05/01 16:34:31;;;;;;;;;;;;;;;;;;5085347;28;19923;-79
2022/05/01 16:36:58;;;;;;;;;;;;;;;;;;5091126;28;19939;-79
2022/05/01 16:39:23;;;;;;;;;;;;;;;;;;5079429;28;20007;-79
2022/05/01 16:41:49;;;;;;;;;;;;;;;;;;5090223;28;20536;-79
2022/05/01 16:44:15;;;;;;;;;;;;;;;;;;5098926;28;20289;-79
2022/05/01 16:46:45;;;;;;;;;;;;;;;;;;5096937;28;20289;-79
2022/05/01 16:49:23;;;;;;;;;;;;;;;;;;;;;
2022/05/01 16:51:51;;;;;;;;;;;;;;;;;;5097602;28;20330;-79
2022/05/01 16:54:17;;;;;;;;;;;;;;;;;;5099570;28;19916;-80
2022/05/01 16:56:43;;;;;;;;;;;;;;;;;;5099701;28;20026;-80
2022/05/01 16:59:10;;;;;;;;;;;;;;;;;;5097718;28;19916;-80
2022/05/01 17:01:39;;;;;;;;;;;;;;;;;;5076754;28;19920;-80
2022/05/01 17:04:06;;;;;;;;;;;;;;;;;;5097953;28;19916;-77
2022/05/01 17:06:35;;;;;;;;;;;;;;;;;;5098216;28;19916;-80
2022/05/01 17:09:00;;;;;;;;;;;;;;;;;;5095311;28;19919;-77
2022/05/01 17:11:26;;;;;;;;;;;;;;;;;;5097164;28;19916;-79
2022/05/01 17:14:10;;;;;;;;;;;;;;;;;;5099069;28;19951;-82
2022/05/01 17:16:46;;;;;;;;;;;;;;;;;;5098686;28;19951;-79
2022/05/01 17:19:17;;;;;;;;;;;;;;;;;;5099399;28;19954;-80
2022/05/01 17:21:50;;;;;;;;;;;;;;;;;;5098506;28;19965;-82
2022/05/01 17:24:18;;;;;;;;;;;;;;;;;;5098004;28;19916;-80
2022/05/01 17:26:46;;;;;;;;;;;;;;;;;;5096148;28;20392;-80
2022/05/01 17:29:13;;;;;;;;;;;;;;;;;;5097680;28;19920;-79
2022/05/01 17:31:41;;;;;;;;;;;;;;;;;;5099882;28;19958;-78
2022/05/01 17:34:07;;;;;;;;;;;;;;;;;;5097668;28;20027;-78
2022/05/01 17:36:33;;;;;;;;;;;;;;;;;;5098442;28;20385;-77
2022/05/01 17:38:59;;;;;;;;;;;;;;;;;;5096372;28;19915;-77
2022/05/01 17:41:26;;;;;;;;;;;;;;;;;;5097873;28;20328;-78